Time;durP1;ratioP1;P1;durP2;ratioP2;P2;SDS_P1;SDS_P2;PMS_P1;PMS_P2;Temp;Humidity;BMP_temperature;BMP_pressure;BME280_temperature;BME280_humidity;BME280_pressure;Samples;Min_cycle;Max_cycle;Signal;HPM_P1;HPM_P2
2023/03/23 00:00:01;;;;;;;2.43;2.00;;;10.50;99.90;;;;;;5046808;28;20810;-55
2023/03/23 00:02:28;;;;;;;2.80;2.40;;;10.50;99.90;;;;;;5054073;28;20828;-56
2023/03/23 00:04:55;;;;;;;3.40;1.77;;;10.50;99.90;;;;;;5053170;28;20516;-53
2023/03/23 00:07:27;;;;;;;9.93;2.23;;;10.50;99.90;;;;;;5039007;28;20459;-55
2023/03/23 00:09:56;;;;;;;2.57;2.37;;;10.40;96.00;;;;;;5058554;28;20554;-54
2023/03/23 00:12:28;;;;;;;8.20;1.70;;;10.40;90.00;;;;;;5060304;28;20512;-55
2023/03/23 00:14:55;;;;;;;1.67;1.43;;;10.40;83.60;;;;;;5049099;28;20467;-56
2023/03/23 00:17:23;;;;;;;1.93;1.80;;;10.30;85.00;;;;;;5036476;28;20475;-55
2023/03/23 00:19:50;;;;;;;2.97;1.83;;;10.40;83.00;;;;;;5048608;28;20467;-56
2023/03/23 00:22:20;;;;;;;2.40;2.20;;;10.40;92.00;;;;;;5043889;28;20516;-56
2023/03/23 00:24:47;;;;;;;5.40;2.90;;;10.50;98.90;;;;;;5058158;28;20579;-55
2023/03/23 00:27:15;;;;;;;2.03;1.93;;;10.50;99.90;;;;;;5036653;28;20542;-56
2023/03/23 00:29:44;;;;;;;2.40;2.00;;;10.50;99.90;;;;;;5046593;28;20880;-56
2023/03/23 00:32:14;;;;;;;2.97;2.67;;;10.40;99.90;;;;;;5043152;28;20459;-55
2023/03/23 00:34:43;;;;;;;2.67;2.07;;;10.40;99.90;;;;;;5043222;28;20443;-57
2023/03/23 00:37:10;;;;;;;3.33;1.93;;;10.30;99.80;;;;;;5039886;28;20581;-54
2023/03/23 00:39:38;;;;;;;4.40;2.60;;;10.30;97.80;;;;;;5054311;28;20451;-55
2023/03/23 00:42:05;;;;;;;1.80;1.70;;;10.30;99.90;;;;;;5057977;28;20528;-56
2023/03/23 00:44:34;;;;;;;2.70;2.20;;;10.30;99.90;;;;;;5044371;28;20442;-55
2023/03/23 00:47:02;;;;;;;5.83;2.00;;;10.20;99.90;;;;;;5038863;28;21016;-55
2023/03/23 00:49:29;;;;;;;2.60;2.40;;;10.20;98.90;;;;;;5049606;28;20481;-55
2023/03/23 00:51:57;;;;;;;2.30;2.10;;;10.20;94.40;;;;;;5052580;28;20486;-56
2023/03/23 00:54:25;;;;;;;2.27;2.17;;;10.10;91.40;;;;;;5060075;28;20461;-55
2023/03/23 00:56:52;;;;;;;2.30;2.10;;;10.10;89.00;;;;;;5042123;28;20459;-57
2023/03/23 00:59:19;;;;;;;8.60;2.10;;;10.00;88.90;;;;;;5048517;28;20442;-55
2023/03/23 01:01:48;;;;;;;4.03;1.70;;;10.00;83.10;;;;;;5051865;28;20474;-55
2023/03/23 01:04:16;;;;;;;2.80;1.80;;;10.00;83.30;;;;;;5053812;28;21010;-54
2023/03/23 01:06:44;;;;;;;2.60;1.87;;;10.00;81.90;;;;;;5047978;28;20873;-55
2023/03/23 01:09:14;;;;;;;1.77;1.67;;;10.00;86.00;;;;;;5058167;28;20548;-55
2023/03/23 01:11:41;;;;;;;3.07;2.00;;;10.00;85.50;;;;;;5047714;28;20473;-56
2023/03/23 01:14:09;;;;;;;4.67;1.90;;;10.00;87.20;;;;;;5044644;28;20490;-57
2023/03/23 01:16:35;;;;;;;2.00;1.90;;;10.00;88.00;;;;;;5044005;28;20513;-56
2023/03/23 01:19:03;;;;;;;2.80;1.87;;;10.10;90.70;;;;;;5044588;28;20989;-56
2023/03/23 01:21:30;;;;;;;1.57;1.57;;;10.20;96.20;;;;;;5044893;28;20490;-56
2023/03/23 01:23:57;;;;;;;3.13;1.60;;;10.30;99.90;;;;;;5052536;28;20465;-54
2023/03/23 01:26:26;;;;;;;2.17;2.00;;;10.30;99.90;;;;;;5047798;28;20489;-55
2023/03/23 01:28:53;;;;;;;2.67;1.73;;;10.30;99.90;;;;;;5036850;28;21280;-56
2023/03/23 01:31:23;;;;;;;5.23;2.23;;;10.40;99.90;;;;;;5052963;28;20830;-56
2023/03/23 01:33:50;;;;;;;1.73;1.63;;;10.50;99.90;;;;;;5048752;28;20458;-55
2023/03/23 01:36:20;;;;;;;1.80;1.70;;;10.60;99.90;;;;;;5047201;28;20817;-55
2023/03/23 01:38:49;;;;;;;3.30;2.50;;;10.60;99.90;;;;;;5036899;28;20437;-55
2023/03/23 01:41:17;;;;;;;6.10;1.90;;;10.60;99.90;;;;;;5044357;28;20636;-56
2023/03/23 01:43:58;;;;;;;1.80;1.70;;;10.60;99.90;;;;;;5041378;28;20438;-54
2023/03/23 01:46:27;;;;;;;3.63;2.30;;;10.70;99.90;;;;;;5046681;28;20792;-56
2023/03/23 01:48:55;;;;;;;3.23;2.00;;;10.70;99.90;;;;;;5048557;28;20482;-55
2023/03/23 01:51:23;;;;;;;3.23;2.20;;;10.60;99.90;;;;;;5043981;28;20482;-57
2023/03/23 01:53:55;;;;;;;3.57;2.20;;;10.60;99.90;;;;;;5045920;28;20461;-57
2023/03/23 01:56:25;;;;;;;2.83;2.00;;;10.60;99.90;;;;;;5052589;28;20877;-53
2023/03/23 01:58:53;;;;;;;9.03;2.37;;;10.70;99.90;;;;;;5044591;28;20807;-57
2023/03/23 02:01:21;;;;;;;2.33;2.10;;;10.70;99.90;;;;;;5044850;28;20505;-55
2023/03/23 02:03:49;;;;;;;2.83;1.70;;;10.80;99.90;;;;;;5033093;28;20463;-55
2023/03/23 02:06:16;;;;;;;4.57;2.10;;;10.80;99.90;;;;;;5043695;28;20485;-54
2023/03/23 02:08:45;;;;;;;3.90;2.20;;;10.80;99.90;;;;;;5051432;28;20474;-54
2023/03/23 02:11:16;;;;;;;1.80;1.70;;;10.90;99.90;;;;;;5044072;28;20992;-55
2023/03/23 02:13:43;;;;;;;4.33;1.73;;;10.90;99.90;;;;;;5043742;28;20528;-56
2023/03/23 02:16:20;;;;;;;4.50;1.70;;;11.00;99.90;;;;;;5043803;28;20467;-56
2023/03/23 02:19:01;;;;;;;2.50;2.10;;;11.00;99.90;;;;;;5042345;28;20458;-57
2023/03/23 02:21:59;;;;;;;2.10;2.00;;;11.00;99.90;;;;;;5041484;28;20482;-56
2023/03/23 02:24:54;;;;;;;2.00;1.90;;;11.10;99.90;;;;;;5046961;28;20462;-55
2023/03/23 02:27:37;;;;;;;2.40;2.00;;;11.10;99.90;;;;;;5050719;28;20471;-55
2023/03/23 02:30:26;;;;;;;4.30;2.33;;;11.10;99.90;;;;;;5040628;28;20483;-55
2023/03/23 02:33:22;;;;;;;1.87;1.77;;;11.10;1.40;;;;;;5037912;28;20459;-57
2023/03/23 02:35:52;;;;;;;3.47;2.40;;;11.20;99.90;;;;;;5042360;28;20471;-54
2023/03/23 02:38:26;;;;;;;3.90;2.23;;;11.20;99.90;;;;;;5062877;28;20473;-56
2023/03/23 02:40:55;;;;;;;2.60;2.00;;;11.30;99.90;;;;;;5061744;28;20488;-54
2023/03/23 02:43:25;;;;;;;4.17;2.20;;;11.30;99.90;;;;;;5066802;28;21041;-54
2023/03/23 02:45:53;;;;;;;1.70;1.60;;;11.40;99.90;;;;;;5055684;28;20490;-55
2023/03/23 02:48:25;;;;;;;3.27;2.10;;;11.40;99.90;;;;;;5058603;28;20469;-55
2023/03/23 02:50:53;;;;;;;1.93;1.83;;;11.40;99.90;;;;;;5057854;28;20495;-55
2023/03/23 02:53:24;;;;;;;3.00;1.80;;;11.40;99.90;;;;;;5058354;28;20469;-55
2023/03/23 02:55:53;;;;;;;2.40;2.20;;;11.40;99.90;;;;;;5057328;28;20631;-55
2023/03/23 02:58:20;;;;;;;4.20;1.90;;;11.40;99.90;;;;;;5062080;28;20465;-55
2023/03/23 03:00:49;;;;;;;1.73;1.63;;;11.30;99.90;;;;;;5038743;28;21001;-55
2023/03/23 03:03:19;;;;;;;2.93;2.10;;;11.40;99.90;;;;;;5048710;28;20458;-55
2023/03/23 03:05:59;;;;;;;2.40;2.30;;;11.40;99.90;;;;;;5059713;28;20879;-55
2023/03/23 03:08:30;;;;;;;2.40;2.20;;;11.40;99.90;;;;;;5051114;28;20471;-56
2023/03/23 03:11:02;;;;;;;4.50;2.43;;;11.40;99.90;;;;;;5050777;28;20484;-55
2023/03/23 03:13:40;;;;;;;2.67;2.00;;;11.40;99.90;;;;;;5050169;28;20495;-56
2023/03/23 03:16:11;;;;;;;4.30;2.63;;;11.40;99.90;;;;;;5043209;28;20458;-54
2023/03/23 03:18:43;;;;;;;2.03;1.83;;;11.40;99.90;;;;;;5043328;28;20439;-54
2023/03/23 03:21:14;;;;;;;4.70;1.90;;;11.40;99.90;;;;;;5048308;28;20825;-55
2023/03/23 03:23:43;;;;;;;1.90;1.80;;;11.40;99.90;;;;;;5066229;28;20461;-55
2023/03/23 03:26:12;;;;;;;2.30;2.03;;;11.40;99.90;;;;;;5042218;28;20513;-55
2023/03/23 03:28:41;;;;;;;2.60;1.77;;;11.30;99.90;;;;;;5047777;28;20570;-56
2023/03/23 03:31:08;;;;;;;2.13;1.90;;;11.20;99.90;;;;;;5045392;28;20485;-56
2023/03/23 03:33:35;;;;;;;1.90;1.80;;;11.20;99.90;;;;;;5051207;28;20467;-56
2023/03/23 03:36:06;;;;;;;2.07;1.83;;;11.10;94.80;;;;;;5050451;28;20451;-55
2023/03/23 03:38:42;;;;;;;3.07;2.60;;;11.00;68.00;;;;;;5064487;28;20441;-56
2023/03/23 03:41:09;;;;;;;2.47;2.00;;;10.90;48.70;;;;;;5052689;28;20476;-55
2023/03/23 03:43:36;;;;;;;3.20;2.30;;;10.80;21.10;;;;;;5041434;28;20478;-56
2023/03/23 03:46:02;;;;;;;25.53;2.70;;;10.60;99.90;;;;;;5042773;28;20500;-55
2023/03/23 03:48:29;;;;;;;3.43;2.33;;;10.50;99.90;;;;;;5049483;28;20465;-55
2023/03/23 03:50:56;;;;;;;4.70;2.50;;;10.50;99.90;;;;;;5057042;28;20481;-55
2023/03/23 03:53:23;;;;;;;5.33;2.60;;;10.40;99.90;;;;;;5048755;28;20508;-54
2023/03/23 03:55:51;;;;;;;2.67;2.47;;;10.30;99.90;;;;;;5046417;28;20489;-54
2023/03/23 03:58:17;;;;;;;3.70;2.40;;;10.30;99.90;;;;;;5037064;28;20515;-54
2023/03/23 04:00:47;;;;;;;2.60;2.40;;;10.30;99.90;;;;;;5047674;28;20475;-55
2023/03/23 04:03:14;;;;;;;5.60;2.83;;;10.20;99.90;;;;;;5052453;28;20469;-55
2023/03/23 04:05:44;;;;;;;3.90;2.40;;;10.20;99.90;;;;;;5047298;28;20521;-55
2023/03/23 04:08:11;;;;;;;3.20;2.30;;;10.20;99.90;;;;;;5043174;28;20462;-56
2023/03/23 04:10:39;;;;;;;2.77;2.57;;;10.20;99.90;;;;;;5051832;28;20854;-54
2023/03/23 04:13:07;;;;;;;4.20;2.80;;;10.20;99.90;;;;;;5054974;28;20457;-55
2023/03/23 04:15:34;;;;;;;5.40;3.73;;;10.20;98.70;;;;;;5049712;28;20442;-55
2023/03/23 04:18:00;;;;;;;4.77;2.90;;;10.20;78.10;;;;;;5054673;28;20557;-55
2023/03/23 04:20:27;;;;;;;4.07;2.53;;;10.20;57.00;;;;;;5059979;28;20824;-55
2023/03/23 04:22:54;;;;;;;5.63;3.20;;;10.10;39.60;;;;;;5057132;28;20963;-56
2023/03/23 04:25:21;;;;;;;6.67;3.10;;;10.10;34.60;;;;;;5040477;28;20486;-56
2023/03/23 04:27:52;;;;;;;4.83;3.47;;;10.00;30.30;;;;;;5053469;28;20466;-55
2023/03/23 04:30:21;;;;;;;5.00;3.53;;;10.00;24.30;;;;;;5078393;22;20494;-55
2023/03/23 04:32:50;;;;;;;4.60;3.20;;;10.00;21.00;;;;;;5042148;28;20528;-57
2023/03/23 04:35:17;;;;;;;5.60;3.00;;;9.90;81.40;;;;;;5045124;28;20943;-55
2023/03/23 04:37:44;;;;;;;4.23;3.00;;;9.90;98.10;;;;;;5038108;28;20451;-57
2023/03/23 04:40:14;;;;;;;3.83;3.13;;;9.90;97.70;;;;;;5050982;28;20841;-56
2023/03/23 04:42:45;;;;;;;6.40;3.50;;;9.90;96.80;;;;;;5044449;28;20479;-56
2023/03/23 04:45:12;;;;;;;3.27;3.07;;;9.80;89.20;;;;;;5040832;28;20469;-57
2023/03/23 04:47:41;;;;;;;3.03;2.57;;;9.90;97.20;;;;;;5044780;28;20542;-56
2023/03/23 04:50:11;;;;;;;8.17;2.80;;;9.80;98.90;;;;;;5047542;28;20549;-58
2023/03/23 04:52:40;;;;;;;3.27;3.00;;;9.80;99.90;;;;;;5049978;28;20551;-56
2023/03/23 04:55:08;;;;;;;4.27;2.93;;;9.80;99.90;;;;;;5048903;28;20455;-56
2023/03/23 04:57:35;;;;;;;3.10;2.50;;;9.80;97.50;;;;;;5047336;28;20540;-56
2023/03/23 05:00:08;;;;;;;3.10;2.20;;;9.80;98.70;;;;;;5033936;28;20513;-57
2023/03/23 05:02:35;;;;;;;8.00;2.23;;;9.80;99.90;;;;;;5033813;28;20509;-56
2023/03/23 05:05:03;;;;;;;6.27;3.20;;;9.80;98.70;;;;;;5037105;28;20471;-56
2023/03/23 05:07:30;;;;;;;2.93;2.03;;;9.80;96.90;;;;;;5046750;28;20482;-56
2023/03/23 05:09:56;;;;;;;5.83;2.77;;;9.80;99.30;;;;;;5042646;28;20559;-57
2023/03/23 05:12:23;;;;;;;4.33;2.87;;;9.80;99.90;;;;;;5039555;28;20541;-58
2023/03/23 05:14:50;;;;;;;4.60;2.93;;;9.80;99.90;;;;;;5034922;28;20494;-58
2023/03/23 05:17:16;;;;;;;6.60;3.37;;;9.80;99.90;;;;;;5047119;28;20482;-56
2023/03/23 05:19:44;;;;;;;12.50;3.97;;;9.80;99.90;;;;;;5045786;28;20460;-56
2023/03/23 05:22:12;;;;;;;7.50;3.47;;;9.80;99.90;;;;;;5040963;28;20479;-57
2023/03/23 05:24:39;;;;;;;3.93;3.13;;;9.80;99.90;;;;;;5042860;28;20971;-56
2023/03/23 05:27:07;;;;;;;9.33;4.60;;;9.80;99.90;;;;;;5037614;28;20819;-56
2023/03/23 05:29:35;;;;;;;9.17;5.73;;;9.80;99.90;;;;;;5043713;28;20486;-56
2023/03/23 05:32:02;;;;;;;9.53;3.90;;;9.80;99.90;;;;;;5040705;28;20487;-56
2023/03/23 05:34:32;;;;;;;6.77;4.40;;;9.80;99.90;;;;;;5037017;28;20458;-56
2023/03/23 05:36:58;;;;;;;4.90;4.40;;;9.80;99.90;;;;;;5039221;28;20924;-56
2023/03/23 05:39:26;;;;;;;6.73;4.00;;;9.80;99.90;;;;;;5041262;28;20451;-56
2023/03/23 05:41:53;;;;;;;5.97;4.73;;;9.80;99.90;;;;;;5038989;28;21008;-57
2023/03/23 05:44:20;;;;;;;7.27;4.20;;;9.80;99.90;;;;;;5032451;28;20513;-56
2023/03/23 05:46:47;;;;;;;6.60;4.50;;;9.80;99.90;;;;;;5037826;28;20455;-56
2023/03/23 05:49:15;;;;;;;4.10;3.70;;;9.80;99.90;;;;;;5042268;28;20456;-56
2023/03/23 05:51:42;;;;;;;6.27;3.50;;;9.70;99.90;;;;;;5044320;28;20517;-57
2023/03/23 05:54:10;;;;;;;6.60;2.93;;;9.70;99.90;;;;;;5039537;28;20499;-56
2023/03/23 05:56:38;;;;;;;8.00;2.97;;;9.70;99.90;;;;;;5038595;28;20459;-56
2023/03/23 05:59:05;;;;;;;3.93;2.80;;;9.70;99.90;;;;;;5034490;28;20512;-57
2023/03/23 06:01:32;;;;;;;3.33;2.67;;;9.70;99.90;;;;;;5038619;28;20487;-57
2023/03/23 06:03:59;;;;;;;3.40;2.50;;;9.70;99.90;;;;;;5036797;28;20984;-55
2023/03/23 06:06:26;;;;;;;3.13;2.93;;;9.70;99.90;;;;;;5045117;28;20454;-56
2023/03/23 06:08:53;;;;;;;3.43;2.27;;;9.60;99.90;;;;;;5038095;28;20998;-55
2023/03/23 06:11:19;;;;;;;2.70;2.50;;;9.60;99.90;;;;;;5037769;28;20506;-56
2023/03/23 06:13:47;;;;;;;5.00;3.00;;;9.60;99.90;;;;;;5036456;28;20880;-57
2023/03/23 06:16:14;;;;;;;3.23;2.43;;;9.60;99.90;;;;;;5036184;28;20494;-57
2023/03/23 06:18:42;;;;;;;3.10;2.40;;;9.60;99.90;;;;;;5048530;28;20505;-56
2023/03/23 06:21:09;;;;;;;4.77;2.80;;;9.60;99.90;;;;;;5037697;28;20844;-56
2023/03/23 06:23:37;;;;;;;3.47;1.90;;;9.60;99.90;;;;;;5041757;28;20972;-56
2023/03/23 06:26:06;;;;;;;2.83;2.10;;;9.60;99.90;;;;;;5034020;28;20464;-55
2023/03/23 06:28:33;;;;;;;3.60;2.30;;;9.60;99.90;;;;;;5043130;28;20509;-56
2023/03/23 06:31:03;;;;;;;4.80;2.10;;;9.60;99.90;;;;;;5031409;28;20487;-55
2023/03/23 06:33:29;;;;;;;2.70;2.20;;;9.60;99.90;;;;;;5033673;28;20499;-55
2023/03/23 06:35:57;;;;;;;2.87;2.23;;;9.60;99.90;;;;;;5041316;28;20462;-55
2023/03/23 06:38:24;;;;;;;6.60;4.33;;;9.60;99.90;;;;;;5036505;28;20801;-55
2023/03/23 06:40:52;;;;;;;2.80;2.60;;;9.60;99.90;;;;;;5036362;28;20540;-56
2023/03/23 06:43:19;;;;;;;3.17;2.63;;;9.60;99.90;;;;;;5033715;28;20873;-55
2023/03/23 06:45:46;;;;;;;2.70;2.40;;;9.60;99.90;;;;;;5039799;28;20460;-59
2023/03/23 06:48:14;;;;;;;5.00;2.90;;;9.60;99.90;;;;;;5032596;28;21053;-56
2023/03/23 06:50:43;;;;;;;3.77;2.37;;;9.60;99.90;;;;;;5040233;28;20488;-57
2023/03/23 06:53:10;;;;;;;2.37;2.20;;;9.60;99.90;;;;;;5037512;28;20460;-55
2023/03/23 06:55:37;;;;;;;5.50;2.07;;;9.60;99.90;;;;;;5035731;28;20460;-55
2023/03/23 06:58:05;;;;;;;7.70;2.07;;;9.60;99.90;;;;;;5038609;28;20530;-56
2023/03/23 07:00:32;;;;;;;2.30;2.20;;;9.60;99.90;;;;;;5046972;28;20481;-56
2023/03/23 07:02:58;;;;;;;3.60;3.30;;;9.70;99.90;;;;;;5044076;28;20444;-56
2023/03/23 07:05:27;;;;;;;2.43;2.27;;;9.70;99.90;;;;;;5041862;28;20541;-56
2023/03/23 07:07:53;;;;;;;4.53;2.40;;;9.80;99.90;;;;;;5033752;28;20517;-56
2023/03/23 07:10:20;;;;;;;4.70;2.60;;;9.70;99.90;;;;;;5036440;28;20516;-55
2023/03/23 07:12:47;;;;;;;2.93;1.80;;;9.80;99.90;;;;;;5031593;28;20499;-56
2023/03/23 07:15:15;;;;;;;4.27;2.37;;;9.80;99.90;;;;;;5015279;28;20462;-55
2023/03/23 07:17:41;;;;;;;3.53;2.00;;;9.80;99.90;;;;;;5036414;28;20458;-55
2023/03/23 07:20:09;;;;;;;2.97;2.30;;;9.80;99.90;;;;;;5037274;28;21018;-55
2023/03/23 07:22:38;;;;;;;3.73;2.60;;;9.80;99.90;;;;;;5032054;28;22048;-55
2023/03/23 07:25:05;;;;;;;3.77;3.30;;;9.80;99.90;;;;;;5038902;28;20541;-56
2023/03/23 07:27:31;;;;;;;6.00;2.17;;;9.90;99.90;;;;;;5023116;28;20501;-55
2023/03/23 07:29:58;;;;;;;3.07;2.07;;;9.80;99.90;;;;;;5034401;28;20532;-55
2023/03/23 07:32:25;;;;;;;8.73;2.03;;;9.90;99.90;;;;;;5029327;28;21012;-54
2023/03/23 07:34:51;;;;;;;3.43;2.50;;;9.90;99.90;;;;;;5033003;28;20470;-54
2023/03/23 07:37:18;;;;;;;3.60;2.90;;;9.90;99.90;;;;;;5049924;28;20462;-56
2023/03/23 07:39:46;;;;;;;7.03;2.70;;;9.90;99.90;;;;;;5047707;28;20524;-56
2023/03/23 07:42:13;;;;;;;4.53;2.90;;;9.90;99.90;;;;;;5032425;28;20566;-57
2023/03/23 07:44:39;;;;;;;3.70;2.57;;;10.00;99.90;;;;;;5042460;28;20636;-56
2023/03/23 07:47:06;;;;;;;3.53;3.03;;;10.00;99.90;;;;;;5043069;28;20501;-56
2023/03/23 07:49:33;;;;;;;7.10;3.20;;;10.10;99.90;;;;;;5038908;28;20466;-56
2023/03/23 07:52:01;;;;;;;3.80;2.40;;;10.10;99.90;;;;;;5036156;28;20514;-56
2023/03/23 07:54:27;;;;;;;3.20;2.40;;;10.20;99.90;;;;;;5036165;28;20495;-56
2023/03/23 07:56:55;;;;;;;6.67;2.47;;;10.20;99.90;;;;;;5042638;28;20505;-56
2023/03/23 07:59:22;;;;;;;1.93;1.77;;;10.30;99.90;;;;;;5036946;28;20466;-56
2023/03/23 08:01:49;;;;;;;1.60;1.50;;;10.30;99.90;;;;;;5043313;28;20524;-56
2023/03/23 08:04:16;;;;;;;4.83;1.97;;;10.30;99.90;;;;;;5039262;28;20467;-56
2023/03/23 08:06:42;;;;;;;4.33;2.50;;;10.30;99.90;;;;;;5045598;28;20799;-55
2023/03/23 08:09:10;;;;;;;2.17;1.97;;;10.40;99.90;;;;;;5036519;28;20463;-60
2023/03/23 08:11:37;;;;;;;3.50;2.17;;;10.30;99.90;;;;;;5034670;28;20491;-56
2023/03/23 08:14:05;;;;;;;8.20;2.87;;;10.40;99.90;;;;;;5029237;28;20467;-57
2023/03/23 08:16:32;;;;;;;2.67;2.47;;;10.40;99.90;;;;;;5038499;28;20469;-55
2023/03/23 08:19:00;;;;;;;6.77;2.03;;;10.40;99.90;;;;;;5037928;28;20485;-57
2023/03/23 08:21:27;;;;;;;3.30;2.60;;;10.40;99.90;;;;;;5034902;28;20510;-57
2023/03/23 08:23:54;;;;;;;5.03;2.00;;;10.50;99.90;;;;;;5033414;28;21027;-54
2023/03/23 08:26:21;;;;;;;3.00;2.37;;;10.50;99.90;;;;;;5036054;28;20450;-55
2023/03/23 08:28:47;;;;;;;2.43;2.23;;;10.50;99.90;;;;;;5039066;28;20820;-55
2023/03/23 08:31:16;;;;;;;4.03;1.93;;;10.60;99.90;;;;;;5034935;28;20490;-55
2023/03/23 08:33:43;;;;;;;16.03;2.40;;;10.60;99.90;;;;;;5036974;28;20470;-55
2023/03/23 08:36:10;;;;;;;2.07;1.90;;;10.60;99.90;;;;;;5036655;28;20486;-56
2023/03/23 08:38:37;;;;;;;2.20;2.00;;;10.60;99.90;;;;;;5043602;28;20489;-56
2023/03/23 08:41:07;;;;;;;4.30;2.00;;;10.70;99.90;;;;;;5043339;28;20505;-56
2023/03/23 08:43:34;;;;;;;4.27;2.53;;;10.80;99.90;;;;;;5041104;28;20458;-56
2023/03/23 08:46:01;;;;;;;1.83;1.73;;;10.90;99.90;;;;;;5042806;28;20868;-57
2023/03/23 08:48:29;;;;;;;4.13;2.37;;;10.90;99.90;;;;;;5032742;28;20553;-56
2023/03/23 08:50:55;;;;;;;1.90;1.63;;;11.00;99.90;;;;;;5042121;28;20830;-55
2023/03/23 08:53:22;;;;;;;2.17;2.00;;;11.00;99.90;;;;;;5044551;28;20474;-56
2023/03/23 08:55:50;;;;;;;3.80;2.10;;;11.00;99.90;;;;;;5031351;28;20454;-55
2023/03/23 08:58:17;;;;;;;2.40;2.20;;;11.10;99.90;;;;;;5037463;28;20454;-55
2023/03/23 09:00:44;;;;;;;2.17;1.97;;;11.00;99.90;;;;;;5033723;28;20477;-56
2023/03/23 09:03:10;;;;;;;1.40;1.40;;;11.00;99.90;;;;;;5038639;28;20467;-56
2023/03/23 09:05:42;;;;;;;3.53;3.27;;;11.00;99.90;;;;;;5044350;28;20459;-57
2023/03/23 09:08:09;;;;;;;2.43;2.20;;;11.10;99.90;;;;;;5040856;28;20459;-57
2023/03/23 09:10:36;;;;;;;2.10;1.90;;;11.10;99.90;;;;;;5031037;28;20485;-56
2023/03/23 09:13:03;;;;;;;5.70;1.90;;;11.20;99.90;;;;;;5031725;28;20847;-57
2023/03/23 09:15:29;;;;;;;6.70;2.20;;;11.20;99.90;;;;;;5027796;28;20521;-56
2023/03/23 09:17:57;;;;;;;5.53;2.50;;;11.30;99.90;;;;;;5033351;28;20458;-56
2023/03/23 09:20:25;;;;;;;2.20;2.00;;;11.50;99.90;;;;;;5036637;28;20468;-56
2023/03/23 09:22:55;;;;;;;2.20;2.00;;;11.60;37.70;;;;;;5034720;28;20468;-56
2023/03/23 09:25:25;;;;;;;2.30;2.10;;;12.00;34.00;;;;;;5042199;28;20515;-56
2023/03/23 09:27:56;;;;;;;1.57;1.47;;;12.40;77.30;;;;;;5052314;28;20442;-56
2023/03/23 09:30:23;;;;;;;5.83;2.47;;;12.70;99.90;;;;;;5035381;28;20467;-58
2023/03/23 09:32:50;;;;;;;2.57;2.37;;;12.90;99.90;;;;;;5037545;28;20467;-56
2023/03/23 09:35:17;;;;;;;9.13;2.67;;;13.20;99.90;;;;;;5039294;28;20458;-56
2023/03/23 09:37:45;;;;;;;3.20;1.70;;;13.50;99.90;;;;;;5027800;28;20540;-58
2023/03/23 09:40:18;;;;;;;2.17;1.97;;;13.90;99.90;;;;;;5024876;28;20469;-58
2023/03/23 09:43:08;;;;;;;1.90;1.70;;;13.80;99.90;;;;;;5025625;28;20459;-57
2023/03/23 09:45:43;;;;;;;2.60;2.20;;;13.80;99.90;;;;;;5023262;28;20471;-56
2023/03/23 09:48:30;;;;;;;3.60;1.63;;;14.10;99.90;;;;;;5031167;28;21668;-56
2023/03/23 09:51:05;;;;;;;3.17;1.90;;;14.70;99.90;;;;;;5033639;28;20511;-56
2023/03/23 09:53:37;;;;;;;1.60;1.50;;;14.50;99.90;;;;;;5032806;28;20463;-55
2023/03/23 09:56:12;;;;;;;2.03;1.63;;;14.60;99.90;;;;;;5030493;28;20548;-57
2023/03/23 09:58:45;;;;;;;2.33;1.50;;;14.70;99.90;;;;;;5039088;28;20517;-56
2023/03/23 10:01:16;;;;;;;2.00;1.90;;;14.50;99.90;;;;;;5038236;28;20457;-56
2023/03/23 10:03:45;;;;;;;1.40;1.30;;;14.30;99.90;;;;;;5040492;28;20864;-56
2023/03/23 10:06:13;;;;;;;2.93;1.60;;;14.00;99.90;;;;;;5034815;28;20481;-56
2023/03/23 10:08:46;;;;;;;1.57;1.47;;;13.80;99.90;;;;;;5042476;28;20459;-56
2023/03/23 10:11:22;;;;;;;3.17;1.90;;;13.70;99.90;;;;;;5043678;28;20489;-56
2023/03/23 10:14:03;;;;;;;1.57;1.47;;;13.60;99.90;;;;;;5041811;28;20468;-57
2023/03/23 10:16:38;;;;;;;1.20;1.10;;;13.60;99.90;;;;;;5047964;28;20454;-52
2023/03/23 10:19:13;;;;;;;1.60;1.50;;;13.50;99.90;;;;;;5030380;28;20492;-53
2023/03/23 10:21:48;;;;;;;4.17;1.80;;;13.50;99.90;;;;;;5041953;28;21345;-53
2023/03/23 10:24:17;;;;;;;1.70;1.60;;;13.60;99.90;;;;;;5031127;28;20455;-54
2023/03/23 10:26:58;;;;;;;2.67;1.27;;;13.70;99.90;;;;;;5031090;28;20593;-55
2023/03/23 10:29:30;;;;;;;5.23;1.60;;;13.80;99.90;;;;;;5031674;28;20517;-53
2023/03/23 10:32:01;;;;;;;2.40;1.60;;;13.90;24.20;;;;;;5034547;28;20478;-53
2023/03/23 10:34:32;;;;;;;1.87;1.67;;;14.10;99.70;;;;;;5031661;28;20459;-52
2023/03/23 10:37:06;;;;;;;1.90;1.30;;;14.30;34.00;;;;;;5034503;28;20463;-54
2023/03/23 10:39:40;;;;;;;3.67;1.30;;;14.40;43.30;;;;;;5033502;28;20542;-53
2023/03/23 10:42:09;;;;;;;2.00;1.80;;;14.50;45.50;;;;;;5034814;28;20477;-52
2023/03/23 10:44:36;;;;;;;2.23;1.50;;;14.30;77.00;;;;;;5029717;28;20487;-52
2023/03/23 10:47:05;;;;;;;1.67;1.40;;;14.40;89.30;;;;;;5033442;28;20551;-52
2023/03/23 10:49:38;;;;;;;6.90;1.80;;;14.70;99.90;;;;;;5030035;28;20488;-55
2023/03/23 10:52:14;;;;;;;2.10;1.70;;;15.00;99.90;;;;;;5030819;28;20602;-53
2023/03/23 10:54:50;;;;;;;1.80;1.30;;;14.90;99.90;;;;;;5034449;28;20470;-53
2023/03/23 10:57:24;;;;;;;11.30;1.70;;;15.00;99.90;;;;;;5035561;28;20564;-54
2023/03/23 10:59:51;;;;;;;2.20;1.93;;;14.90;99.90;;;;;;5035618;28;20579;-55
2023/03/23 11:02:20;;;;;;;1.37;1.27;;;14.70;99.90;;;;;;5032178;28;21362;-53
2023/03/23 11:04:58;;;;;;;1.57;1.47;;;14.30;99.90;;;;;;5037555;28;20474;-52
2023/03/23 11:07:28;;;;;;;4.73;1.43;;;14.40;99.90;;;;;;5036630;28;20459;-54
2023/03/23 11:09:56;;;;;;;2.27;2.13;;;14.20;99.90;;;;;;5036850;28;20526;-52
2023/03/23 11:12:24;;;;;;;1.90;1.33;;;14.30;99.90;;;;;;5034379;28;21171;-53
2023/03/23 11:14:51;;;;;;;3.17;1.30;;;14.40;99.90;;;;;;5031323;28;21958;-53
2023/03/23 11:17:24;;;;;;;1.60;1.50;;;14.30;99.90;;;;;;5030845;28;20456;-52
2023/03/23 11:19:51;;;;;;;1.57;1.50;;;14.20;99.90;;;;;;5029688;28;20473;-52
2023/03/23 11:22:25;;;;;;;7.13;1.80;;;14.30;99.90;;;;;;5031965;28;20484;-52
2023/03/23 11:24:55;;;;;;;1.30;1.20;;;14.20;99.90;;;;;;5037777;28;20473;-53
2023/03/23 11:27:24;;;;;;;2.93;1.20;;;14.20;99.90;;;;;;5048807;28;20477;-53
2023/03/23 11:29:54;;;;;;;1.47;1.33;;;14.20;99.90;;;;;;5036364;28;20518;-53
2023/03/23 11:32:24;;;;;;;1.23;1.20;;;14.30;99.90;;;;;;5028282;28;20577;-53
2023/03/23 11:34:56;;;;;;;2.57;1.63;;;14.30;99.90;;;;;;5035414;28;20512;-53
2023/03/23 11:37:31;;;;;;;1.23;1.13;;;14.40;99.90;;;;;;5032568;28;20546;-53
2023/03/23 11:39:59;;;;;;;1.27;1.17;;;14.50;99.90;;;;;;5031562;28;20467;-53
2023/03/23 11:42:37;;;;;;;1.80;1.50;;;14.70;99.90;;;;;;5033630;28;20474;-54
2023/03/23 11:45:22;;;;;;;1.53;1.43;;;14.70;99.90;;;;;;5037006;28;20466;-54
2023/03/23 11:47:57;;;;;;;2.17;1.17;;;14.70;99.90;;;;;;5025347;28;20466;-53
2023/03/23 11:50:27;;;;;;;2.23;1.60;;;14.40;99.90;;;;;;5031215;28;20444;-52
2023/03/23 11:52:59;;;;;;;2.00;1.70;;;14.50;99.90;;;;;;5036621;28;20510;-54
2023/03/23 11:55:31;;;;;;;4.17;1.43;;;14.50;99.90;;;;;;5032489;28;20470;-53
2023/03/23 11:58:06;;;;;;;1.70;1.60;;;14.50;99.90;;;;;;5029552;28;20541;-53
2023/03/23 12:00:33;;;;;;;2.70;1.53;;;14.60;1.40;;;;;;5040440;28;20486;-52
2023/03/23 12:03:33;;;;;;;1.83;1.53;;;14.50;99.90;;;;;;5035806;28;20510;-53
2023/03/23 12:06:04;;;;;;;2.90;1.50;;;14.60;99.90;;;;;;5040118;28;20456;-53
2023/03/23 12:08:48;;;;;;;1.93;1.67;;;14.50;99.90;;;;;;5035934;28;20463;-52
2023/03/23 12:11:25;;;;;;;3.33;1.27;;;14.50;99.90;;;;;;5037893;28;20482;-53
2023/03/23 12:14:08;;;;;;;2.90;2.30;;;14.50;99.90;;;;;;5037876;28;20514;-53
2023/03/23 12:16:48;;;;;;;1.33;1.33;;;14.50;99.90;;;;;;5033014;28;20506;-53
2023/03/23 12:19:22;;;;;;;2.80;1.60;;;14.50;99.90;;;;;;5037087;28;20452;-53
2023/03/23 12:21:59;;;;;;;3.00;1.73;;;14.50;99.90;;;;;;5032944;28;20471;-53
2023/03/23 12:24:47;;;;;;;3.60;2.10;;;14.50;99.90;;;;;;5033322;28;20462;-52
2023/03/23 12:27:24;;;;;;;1.37;1.27;;;14.60;99.90;;;;;;5034373;28;20498;-52
2023/03/23 12:30:17;;;;;;;1.43;1.33;;;14.50;99.90;;;;;;5038649;28;20880;-52
2023/03/23 12:32:59;;;;;;;12.23;1.83;;;14.50;99.90;;;;;;5030171;28;20544;-53
2023/03/23 12:35:37;;;;;;;2.93;1.50;;;14.50;99.90;;;;;;5035561;28;20471;-52
2023/03/23 12:38:20;;;;;;;1.97;1.20;;;14.50;99.90;;;;;;5030064;28;21059;-55
2023/03/23 12:40:56;;;;;;;1.83;1.70;;;14.50;99.90;;;;;;5035895;28;21057;-53
2023/03/23 12:43:29;;;;;;;2.03;1.43;;;14.50;99.90;;;;;;5045203;28;20999;-53
2023/03/23 12:46:31;;;;;;;2.60;1.53;;;14.50;99.90;;;;;;5041298;28;20471;-53
2023/03/23 12:49:05;;;;;;;3.30;1.50;;;14.50;99.90;;;;;;5040205;28;20522;-55
2023/03/23 12:51:37;;;;;;;4.53;1.70;;;14.60;99.90;;;;;;5046035;28;20461;-54
2023/03/23 12:54:11;;;;;;;2.13;1.57;;;14.70;99.90;;;;;;5032067;28;21001;-53
2023/03/23 12:56:45;;;;;;;5.50;1.50;;;14.70;99.90;;;;;;5031466;28;21014;-52
2023/03/23 12:59:17;;;;;;;1.90;1.77;;;14.90;99.90;;;;;;5031081;28;20532;-53
2023/03/23 13:01:51;;;;;;;1.67;1.57;;;15.00;98.10;;;;;;5043326;28;21195;-52
2023/03/23 13:04:22;;;;;;;1.97;1.80;;;15.80;41.80;;;;;;5043850;28;20513;-53